sensor_id;sensor_type;location;lat;lon;timestamp;P1;durP1;ratioP1;P2;durP2;ratioP2
14876;SDS011;69691;48.172;17.070;2024-02-16T00:01:01;47.78;;;27.23;;
14876;SDS011;69691;48.172;17.070;2024-02-16T00:03:28;51.88;;;31.05;;
14876;SDS011;69691;48.172;17.070;2024-02-16T00:05:54;50.95;;;30.30;;
14876;SDS011;69691;48.172;17.070;2024-02-16T00:08:20;47.15;;;27.65;;
14876;SDS011;69691;48.172;17.070;2024-02-16T00:10:46;36.55;;;21.90;;
14876;SDS011;69691;48.172;17.070;2024-02-16T00:13:13;47.35;;;25.60;;
14876;SDS011;69691;48.172;17.070;2024-02-16T00:15:40;42.33;;;25.65;;
14876;SDS011;69691;48.172;17.070;2024-02-16T00:18:06;49.25;;;27.10;;
14876;SDS011;69691;48.172;17.070;2024-02-16T00:20:33;49.95;;;28.50;;
14876;SDS011;69691;48.172;17.070;2024-02-16T00:22:59;40.38;;;25.50;;
14876;SDS011;69691;48.172;17.070;2024-02-16T00:25:27;47.72;;;26.15;;
14876;SDS011;69691;48.172;17.070;2024-02-16T00:27:53;48.80;;;25.60;;
14876;SDS011;69691;48.172;17.070;2024-02-16T00:30:19;48.65;;;26.95;;
14876;SDS011;69691;48.172;17.070;2024-02-16T00:32:46;42.20;;;26.88;;
14876;SDS011;69691;48.172;17.070;2024-02-16T00:35:13;50.22;;;29.25;;
14876;SDS011;69691;48.172;17.070;2024-02-16T00:37:41;54.33;;;26.00;;
14876;SDS011;69691;48.172;17.070;2024-02-16T00:40:07;29.90;;;19.05;;
14876;SDS011;69691;48.172;17.070;2024-02-16T00:42:34;41.08;;;21.20;;
14876;SDS011;69691;48.172;17.070;2024-02-16T00:45:00;43.97;;;22.10;;
14876;SDS011;69691;48.172;17.070;2024-02-16T00:47:26;54.03;;;30.15;;
14876;SDS011;69691;48.172;17.070;2024-02-16T00:49:55;43.20;;;22.17;;
14876;SDS011;69691;48.172;17.070;2024-02-16T00:52:21;37.08;;;22.23;;
14876;SDS011;69691;48.172;17.070;2024-02-16T00:54:48;39.20;;;23.73;;
14876;SDS011;69691;48.172;17.070;2024-02-16T00:57:14;48.92;;;28.65;;
14876;SDS011;69691;48.172;17.070;2024-02-16T00:59:41;47.15;;;24.85;;
14876;SDS011;69691;48.172;17.070;2024-02-16T01:02:07;45.55;;;27.67;;
14876;SDS011;69691;48.172;17.070;2024-02-16T01:04:35;53.30;;;28.50;;
14876;SDS011;69691;48.172;17.070;2024-02-16T01:07:01;57.05;;;32.20;;
14876;SDS011;69691;48.172;17.070;2024-02-16T01:09:28;54.30;;;31.20;;
14876;SDS011;69691;48.172;17.070;2024-02-16T01:11:54;59.38;;;29.65;;
14876;SDS011;69691;48.172;17.070;2024-02-16T01:14:20;47.92;;;28.58;;
14876;SDS011;69691;48.172;17.070;2024-02-16T01:16:46;51.03;;;28.13;;
14876;SDS011;69691;48.172;17.070;2024-02-16T01:19:12;52.75;;;28.48;;
14876;SDS011;69691;48.172;17.070;2024-02-16T01:21:38;53.65;;;29.80;;
14876;SDS011;69691;48.172;17.070;2024-02-16T01:24:05;57.78;;;31.63;;
14876;SDS011;69691;48.172;17.070;2024-02-16T01:26:31;53.08;;;28.90;;
14876;SDS011;69691;48.172;17.070;2024-02-16T01:28:57;44.63;;;26.73;;
14876;SDS011;69691;48.172;17.070;2024-02-16T01:31:24;45.83;;;27.45;;
14876;SDS011;69691;48.172;17.070;2024-02-16T01:33:50;48.95;;;28.70;;
14876;SDS011;69691;48.172;17.070;2024-02-16T01:36:18;41.10;;;24.38;;
14876;SDS011;69691;48.172;17.070;2024-02-16T01:38:44;47.40;;;27.60;;
14876;SDS011;69691;48.172;17.070;2024-02-16T01:41:10;46.45;;;28.52;;
14876;SDS011;69691;48.172;17.070;2024-02-16T01:43:36;50.83;;;28.10;;
14876;SDS011;69691;48.172;17.070;2024-02-16T01:46:02;43.40;;;25.88;;
14876;SDS011;69691;48.172;17.070;2024-02-16T01:48:27;44.95;;;26.98;;
14876;SDS011;69691;48.172;17.070;2024-02-16T01:50:54;44.17;;;27.42;;
14876;SDS011;69691;48.172;17.070;2024-02-16T01:53:21;56.55;;;30.00;;
14876;SDS011;69691;48.172;17.070;2024-02-16T01:55:47;43.83;;;26.77;;
14876;SDS011;69691;48.172;17.070;2024-02-16T01:58:13;48.22;;;28.52;;
14876;SDS011;69691;48.172;17.070;2024-02-16T02:00:39;43.78;;;26.75;;
14876;SDS011;69691;48.172;17.070;2024-02-16T02:03:08;45.08;;;26.60;;
14876;SDS011;69691;48.172;17.070;2024-02-16T02:05:43;49.63;;;26.50;;
14876;SDS011;69691;48.172;17.070;2024-02-16T02:08:11;43.78;;;27.88;;
14876;SDS011;69691;48.172;17.070;2024-02-16T02:10:38;48.15;;;27.27;;
14876;SDS011;69691;48.172;17.070;2024-02-16T02:13:03;42.60;;;26.60;;
14876;SDS011;69691;48.172;17.070;2024-02-16T02:15:29;49.03;;;27.83;;
14876;SDS011;69691;48.172;17.070;2024-02-16T02:17:55;58.40;;;27.77;;
14876;SDS011;69691;48.172;17.070;2024-02-16T02:20:23;53.85;;;29.35;;
14876;SDS011;69691;48.172;17.070;2024-02-16T02:22:49;47.40;;;28.27;;
14876;SDS011;69691;48.172;17.070;2024-02-16T02:25:15;49.10;;;30.20;;
14876;SDS011;69691;48.172;17.070;2024-02-16T02:27:40;52.05;;;29.13;;
14876;SDS011;69691;48.172;17.070;2024-02-16T02:30:07;38.67;;;22.50;;
14876;SDS011;69691;48.172;17.070;2024-02-16T02:32:34;45.42;;;25.23;;
14876;SDS011;69691;48.172;17.070;2024-02-16T02:35:01;50.08;;;27.23;;
14876;SDS011;69691;48.172;17.070;2024-02-16T02:37:27;51.10;;;26.50;;
14876;SDS011;69691;48.172;17.070;2024-02-16T02:39:53;50.10;;;27.35;;
14876;SDS011;69691;48.172;17.070;2024-02-16T02:42:19;55.72;;;27.27;;
14876;SDS011;69691;48.172;17.070;2024-02-16T02:44:44;50.00;;;29.60;;
14876;SDS011;69691;48.172;17.070;2024-02-16T02:47:15;58.85;;;31.23;;
14876;SDS011;69691;48.172;17.070;2024-02-16T02:49:44;47.72;;;27.92;;
14876;SDS011;69691;48.172;17.070;2024-02-16T02:52:10;42.03;;;23.05;;
14876;SDS011;69691;48.172;17.070;2024-02-16T02:54:36;46.28;;;28.05;;
14876;SDS011;69691;48.172;17.070;2024-02-16T02:57:02;50.13;;;30.50;;
14876;SDS011;69691;48.172;17.070;2024-02-16T02:59:28;51.72;;;28.45;;
14876;SDS011;69691;48.172;17.070;2024-02-16T03:01:54;43.33;;;26.17;;
14876;SDS011;69691;48.172;17.070;2024-02-16T03:04:20;50.83;;;29.27;;
14876;SDS011;69691;48.172;17.070;2024-02-16T03:06:46;51.45;;;29.55;;
14876;SDS011;69691;48.172;17.070;2024-02-16T03:09:12;48.10;;;27.10;;
14876;SDS011;69691;48.172;17.070;2024-02-16T03:11:38;52.58;;;26.83;;
14876;SDS011;69691;48.172;17.070;2024-02-16T03:14:05;53.85;;;31.58;;
14876;SDS011;69691;48.172;17.070;2024-02-16T03:16:31;46.90;;;28.90;;
14876;SDS011;69691;48.172;17.070;2024-02-16T03:18:57;43.03;;;23.77;;
14876;SDS011;69691;48.172;17.070;2024-02-16T03:21:24;51.88;;;30.58;;
14876;SDS011;69691;48.172;17.070;2024-02-16T03:23:50;52.45;;;29.23;;
14876;SDS011;69691;48.172;17.070;2024-02-16T03:26:19;53.33;;;28.73;;
14876;SDS011;69691;48.172;17.070;2024-02-16T03:28:46;50.40;;;30.58;;
14876;SDS011;69691;48.172;17.070;2024-02-16T03:31:30;49.22;;;26.52;;
14876;SDS011;69691;48.172;17.070;2024-02-16T03:33:58;53.58;;;31.30;;
14876;SDS011;69691;48.172;17.070;2024-02-16T03:36:24;46.17;;;29.58;;
14876;SDS011;69691;48.172;17.070;2024-02-16T03:38:50;50.45;;;29.67;;
14876;SDS011;69691;48.172;17.070;2024-02-16T03:41:19;44.40;;;27.40;;
14876;SDS011;69691;48.172;17.070;2024-02-16T03:43:47;52.65;;;29.15;;
14876;SDS011;69691;48.172;17.070;2024-02-16T03:46:13;50.08;;;28.65;;
14876;SDS011;69691;48.172;17.070;2024-02-16T03:48:39;44.38;;;28.15;;
14876;SDS011;69691;48.172;17.070;2024-02-16T03:51:05;45.28;;;28.58;;
14876;SDS011;69691;48.172;17.070;2024-02-16T03:53:32;47.50;;;27.67;;
14876;SDS011;69691;48.172;17.070;2024-02-16T03:55:58;50.97;;;29.45;;
14876;SDS011;69691;48.172;17.070;2024-02-16T03:58:24;57.67;;;29.70;;
14876;SDS011;69691;48.172;17.070;2024-02-16T04:00:50;55.72;;;31.75;;
14876;SDS011;69691;48.172;17.070;2024-02-16T04:03:18;48.40;;;29.75;;
14876;SDS011;69691;48.172;17.070;2024-02-16T04:05:44;49.30;;;25.33;;
14876;SDS011;69691;48.172;17.070;2024-02-16T04:08:10;55.40;;;31.70;;
14876;SDS011;69691;48.172;17.070;2024-02-16T04:10:36;47.00;;;27.08;;
14876;SDS011;69691;48.172;17.070;2024-02-16T04:13:02;48.47;;;29.60;;
14876;SDS011;69691;48.172;17.070;2024-02-16T04:15:28;49.05;;;28.75;;
14876;SDS011;69691;48.172;17.070;2024-02-16T04:17:54;57.25;;;31.65;;
14876;SDS011;69691;48.172;17.070;2024-02-16T04:20:20;49.58;;;29.98;;
14876;SDS011;69691;48.172;17.070;2024-02-16T04:22:46;46.65;;;26.52;;
14876;SDS011;69691;48.172;17.070;2024-02-16T04:25:12;45.88;;;28.02;;
14876;SDS011;69691;48.172;17.070;2024-02-16T04:27:38;50.38;;;27.20;;
14876;SDS011;69691;48.172;17.070;2024-02-16T04:30:04;51.25;;;26.25;;
14876;SDS011;69691;48.172;17.070;2024-02-16T04:32:31;44.65;;;26.55;;
14876;SDS011;69691;48.172;17.070;2024-02-16T04:35:00;44.20;;;27.05;;
14876;SDS011;69691;48.172;17.070;2024-02-16T04:37:26;46.15;;;28.20;;
14876;SDS011;69691;48.172;17.070;2024-02-16T04:39:52;54.15;;;27.90;;
14876;SDS011;69691;48.172;17.070;2024-02-16T04:42:18;58.30;;;29.75;;
14876;SDS011;69691;48.172;17.070;2024-02-16T04:44:44;43.05;;;25.88;;
14876;SDS011;69691;48.172;17.070;2024-02-16T04:47:10;46.17;;;26.45;;
14876;SDS011;69691;48.172;17.070;2024-02-16T04:49:36;47.33;;;26.17;;
14876;SDS011;69691;48.172;17.070;2024-02-16T04:52:03;39.67;;;22.00;;
14876;SDS011;69691;48.172;17.070;2024-02-16T04:54:29;39.50;;;23.23;;
14876;SDS011;69691;48.172;17.070;2024-02-16T04:56:55;42.08;;;24.80;;
14876;SDS011;69691;48.172;17.070;2024-02-16T04:59:21;37.42;;;20.58;;
14876;SDS011;69691;48.172;17.070;2024-02-16T05:01:47;32.10;;;17.55;;
14876;SDS011;69691;48.172;17.070;2024-02-16T05:04:13;36.72;;;23.02;;
14876;SDS011;69691;48.172;17.070;2024-02-16T05:06:42;37.60;;;23.20;;
14876;SDS011;69691;48.172;17.070;2024-02-16T05:09:11;39.03;;;22.48;;
14876;SDS011;69691;48.172;17.070;2024-02-16T05:11:37;42.03;;;24.55;;
14876;SDS011;69691;48.172;17.070;2024-02-16T05:14:03;35.40;;;21.63;;
14876;SDS011;69691;48.172;17.070;2024-02-16T05:16:29;36.60;;;22.88;;
14876;SDS011;69691;48.172;17.070;2024-02-16T05:18:55;37.30;;;22.75;;
14876;SDS011;69691;48.172;17.070;2024-02-16T05:21:21;41.67;;;22.77;;
14876;SDS011;69691;48.172;17.070;2024-02-16T05:23:47;37.72;;;22.33;;
14876;SDS011;69691;48.172;17.070;2024-02-16T05:26:13;43.55;;;24.23;;
14876;SDS011;69691;48.172;17.070;2024-02-16T05:28:39;41.83;;;23.98;;
14876;SDS011;69691;48.172;17.070;2024-02-16T05:31:15;37.42;;;21.17;;
14876;SDS011;69691;48.172;17.070;2024-02-16T05:33:52;46.72;;;25.15;;
14876;SDS011;69691;48.172;17.070;2024-02-16T05:36:21;38.10;;;22.00;;
14876;SDS011;69691;48.172;17.070;2024-02-16T05:38:52;37.85;;;22.55;;
14876;SDS011;69691;48.172;17.070;2024-02-16T05:41:20;39.85;;;21.98;;
14876;SDS011;69691;48.172;17.070;2024-02-16T05:43:47;40.50;;;24.42;;
14876;SDS011;69691;48.172;17.070;2024-02-16T05:46:17;40.78;;;22.20;;
14876;SDS011;69691;48.172;17.070;2024-02-16T05:48:43;45.28;;;24.58;;
14876;SDS011;69691;48.172;17.070;2024-02-16T05:51:10;39.85;;;23.02;;
14876;SDS011;69691;48.172;17.070;2024-02-16T05:53:38;42.33;;;23.38;;
14876;SDS011;69691;48.172;17.070;2024-02-16T05:56:06;35.38;;;21.35;;
14876;SDS011;69691;48.172;17.070;2024-02-16T05:58:32;40.70;;;21.20;;
14876;SDS011;69691;48.172;17.070;2024-02-16T06:00:58;40.88;;;21.80;;
14876;SDS011;69691;48.172;17.070;2024-02-16T06:03:24;41.97;;;25.50;;
14876;SDS011;69691;48.172;17.070;2024-02-16T06:05:51;41.28;;;24.20;;
14876;SDS011;69691;48.172;17.070;2024-02-16T06:08:17;41.78;;;24.85;;
14876;SDS011;69691;48.172;17.070;2024-02-16T06:10:44;31.20;;;19.20;;
14876;SDS011;69691;48.172;17.070;2024-02-16T06:13:16;40.00;;;21.33;;
14876;SDS011;69691;48.172;17.070;2024-02-16T06:15:43;39.78;;;23.45;;
14876;SDS011;69691;48.172;17.070;2024-02-16T06:18:09;42.38;;;25.23;;
14876;SDS011;69691;48.172;17.070;2024-02-16T06:20:35;43.80;;;24.45;;
14876;SDS011;69691;48.172;17.070;2024-02-16T06:23:00;42.47;;;23.60;;
14876;SDS011;69691;48.172;17.070;2024-02-16T06:25:27;43.42;;;21.90;;
14876;SDS011;69691;48.172;17.070;2024-02-16T06:27:53;45.28;;;24.02;;
14876;SDS011;69691;48.172;17.070;2024-02-16T06:30:19;50.45;;;25.80;;
14876;SDS011;69691;48.172;17.070;2024-02-16T06:32:45;41.10;;;25.40;;
14876;SDS011;69691;48.172;17.070;2024-02-16T06:35:11;43.88;;;23.38;;
14876;SDS011;69691;48.172;17.070;2024-02-16T06:37:37;43.30;;;25.88;;
14876;SDS011;69691;48.172;17.070;2024-02-16T06:40:04;42.55;;;23.80;;
14876;SDS011;69691;48.172;17.070;2024-02-16T06:42:34;37.38;;;20.20;;
14876;SDS011;69691;48.172;17.070;2024-02-16T06:45:00;43.35;;;24.23;;
14876;SDS011;69691;48.172;17.070;2024-02-16T06:47:28;51.67;;;27.95;;
14876;SDS011;69691;48.172;17.070;2024-02-16T06:49:54;40.28;;;24.23;;
14876;SDS011;69691;48.172;17.070;2024-02-16T06:52:20;48.17;;;26.33;;
14876;SDS011;69691;48.172;17.070;2024-02-16T06:54:46;43.08;;;23.65;;
14876;SDS011;69691;48.172;17.070;2024-02-16T06:57:12;48.92;;;25.17;;
14876;SDS011;69691;48.172;17.070;2024-02-16T06:59:38;43.70;;;25.90;;
14876;SDS011;69691;48.172;17.070;2024-02-16T07:02:03;38.67;;;24.70;;
14876;SDS011;69691;48.172;17.070;2024-02-16T07:04:29;42.17;;;24.60;;
14876;SDS011;69691;48.172;17.070;2024-02-16T07:06:55;43.13;;;25.88;;
14876;SDS011;69691;48.172;17.070;2024-02-16T07:09:21;43.00;;;24.92;;
14876;SDS011;69691;48.172;17.070;2024-02-16T07:11:47;34.88;;;20.13;;
14876;SDS011;69691;48.172;17.070;2024-02-16T07:14:15;40.45;;;26.08;;
14876;SDS011;69691;48.172;17.070;2024-02-16T07:16:41;43.80;;;23.50;;
14876;SDS011;69691;48.172;17.070;2024-02-16T07:19:08;39.42;;;21.50;;
14876;SDS011;69691;48.172;17.070;2024-02-16T07:21:34;45.30;;;24.52;;
14876;SDS011;69691;48.172;17.070;2024-02-16T07:24:00;44.78;;;24.58;;
14876;SDS011;69691;48.172;17.070;2024-02-16T07:26:27;38.90;;;20.02;;
14876;SDS011;69691;48.172;17.070;2024-02-16T07:28:54;42.58;;;26.05;;
14876;SDS011;69691;48.172;17.070;2024-02-16T07:31:20;43.20;;;25.00;;
14876;SDS011;69691;48.172;17.070;2024-02-16T07:33:46;41.20;;;22.90;;
14876;SDS011;69691;48.172;17.070;2024-02-16T07:36:12;42.10;;;23.52;;
14876;SDS011;69691;48.172;17.070;2024-02-16T07:38:39;45.55;;;23.90;;
14876;SDS011;69691;48.172;17.070;2024-02-16T07:41:05;43.15;;;22.83;;
14876;SDS011;69691;48.172;17.070;2024-02-16T07:43:32;31.48;;;18.48;;
14876;SDS011;69691;48.172;17.070;2024-02-16T07:46:00;39.70;;;24.02;;
14876;SDS011;69691;48.172;17.070;2024-02-16T07:48:26;42.20;;;23.52;;
14876;SDS011;69691;48.172;17.070;2024-02-16T07:50:53;50.83;;;22.98;;
14876;SDS011;69691;48.172;17.070;2024-02-16T07:53:19;38.95;;;23.15;;
14876;SDS011;69691;48.172;17.070;2024-02-16T07:55:45;33.03;;;20.88;;
14876;SDS011;69691;48.172;17.070;2024-02-16T07:58:11;35.63;;;19.75;;
14876;SDS011;69691;48.172;17.070;2024-02-16T08:00:37;36.15;;;20.02;;
14876;SDS011;69691;48.172;17.070;2024-02-16T08:03:04;33.25;;;21.55;;
14876;SDS011;69691;48.172;17.070;2024-02-16T08:05:29;42.92;;;23.90;;
14876;SDS011;69691;48.172;17.070;2024-02-16T08:07:55;33.53;;;18.58;;
14876;SDS011;69691;48.172;17.070;2024-02-16T08:10:26;36.60;;;22.88;;
14876;SDS011;69691;48.172;17.070;2024-02-16T08:12:52;33.03;;;20.67;;
14876;SDS011;69691;48.172;17.070;2024-02-16T08:15:18;28.80;;;19.30;;
14876;SDS011;69691;48.172;17.070;2024-02-16T08:17:51;37.92;;;21.05;;
14876;SDS011;69691;48.172;17.070;2024-02-16T08:20:17;40.60;;;21.48;;
14876;SDS011;69691;48.172;17.070;2024-02-16T08:22:43;30.55;;;20.48;;
14876;SDS011;69691;48.172;17.070;2024-02-16T08:25:09;38.50;;;21.25;;
14876;SDS011;69691;48.172;17.070;2024-02-16T08:27:36;39.00;;;22.95;;
14876;SDS011;69691;48.172;17.070;2024-02-16T08:30:03;36.25;;;22.67;;
14876;SDS011;69691;48.172;17.070;2024-02-16T08:32:31;39.88;;;24.33;;
14876;SDS011;69691;48.172;17.070;2024-02-16T08:34:57;40.97;;;23.88;;
14876;SDS011;69691;48.172;17.070;2024-02-16T08:37:24;35.45;;;21.40;;
14876;SDS011;69691;48.172;17.070;2024-02-16T08:39:50;39.17;;;20.77;;
14876;SDS011;69691;48.172;17.070;2024-02-16T08:42:17;33.97;;;20.48;;
14876;SDS011;69691;48.172;17.070;2024-02-16T08:44:43;39.83;;;22.85;;
14876;SDS011;69691;48.172;17.070;2024-02-16T08:47:09;39.40;;;23.85;;
14876;SDS011;69691;48.172;17.070;2024-02-16T08:49:35;36.42;;;21.58;;
14876;SDS011;69691;48.172;17.070;2024-02-16T08:52:01;37.95;;;24.08;;
14876;SDS011;69691;48.172;17.070;2024-02-16T08:54:28;39.38;;;22.42;;
14876;SDS011;69691;48.172;17.070;2024-02-16T08:56:53;38.88;;;23.40;;
14876;SDS011;69691;48.172;17.070;2024-02-16T08:59:20;41.25;;;24.17;;
14876;SDS011;69691;48.172;17.070;2024-02-16T09:01:46;43.42;;;22.30;;
14876;SDS011;69691;48.172;17.070;2024-02-16T09:04:12;30.73;;;20.10;;
14876;SDS011;69691;48.172;17.070;2024-02-16T09:06:37;30.90;;;18.67;;
14876;SDS011;69691;48.172;17.070;2024-02-16T09:09:04;33.53;;;19.08;;
14876;SDS011;69691;48.172;17.070;2024-02-16T09:11:33;36.25;;;21.77;;
14876;SDS011;69691;48.172;17.070;2024-02-16T09:13:59;36.03;;;21.85;;
14876;SDS011;69691;48.172;17.070;2024-02-16T09:16:25;37.22;;;21.88;;
14876;SDS011;69691;48.172;17.070;2024-02-16T09:18:51;36.33;;;21.20;;
14876;SDS011;69691;48.172;17.070;2024-02-16T09:21:17;34.15;;;19.40;;
14876;SDS011;69691;48.172;17.070;2024-02-16T09:23:43;29.05;;;18.63;;
14876;SDS011;69691;48.172;17.070;2024-02-16T09:26:09;26.20;;;16.08;;
14876;SDS011;69691;48.172;17.070;2024-02-16T09:28:38;28.77;;;18.02;;
14876;SDS011;69691;48.172;17.070;2024-02-16T09:31:06;28.42;;;17.77;;
14876;SDS011;69691;48.172;17.070;2024-02-16T09:33:33;31.70;;;17.63;;
14876;SDS011;69691;48.172;17.070;2024-02-16T09:36:00;33.10;;;20.42;;
14876;SDS011;69691;48.172;17.070;2024-02-16T09:38:26;32.25;;;21.75;;
14876;SDS011;69691;48.172;17.070;2024-02-16T09:40:51;36.55;;;20.77;;
14876;SDS011;69691;48.172;17.070;2024-02-16T09:43:27;44.97;;;21.80;;
14876;SDS011;69691;48.172;17.070;2024-02-16T09:45:55;32.20;;;20.92;;
14876;SDS011;69691;48.172;17.070;2024-02-16T09:48:25;32.22;;;20.75;;
14876;SDS011;69691;48.172;17.070;2024-02-16T09:50:55;36.58;;;21.65;;
14876;SDS011;69691;48.172;17.070;2024-02-16T09:53:24;35.90;;;20.73;;
14876;SDS011;69691;48.172;17.070;2024-02-16T09:55:52;37.80;;;20.58;;
14876;SDS011;69691;48.172;17.070;2024-02-16T09:58:18;31.90;;;18.83;;
14876;SDS011;69691;48.172;17.070;2024-02-16T10:00:48;30.23;;;18.63;;
14876;SDS011;69691;48.172;17.070;2024-02-16T10:03:22;30.05;;;19.55;;
14876;SDS011;69691;48.172;17.070;2024-02-16T10:06:09;27.02;;;18.60;;
14876;SDS011;69691;48.172;17.070;2024-02-16T10:08:52;33.72;;;18.77;;
14876;SDS011;69691;48.172;17.070;2024-02-16T10:11:26;30.90;;;18.38;;
14876;SDS011;69691;48.172;17.070;2024-02-16T10:13:54;31.95;;;18.23;;
14876;SDS011;69691;48.172;17.070;2024-02-16T10:16:28;24.50;;;15.85;;
14876;SDS011;69691;48.172;17.070;2024-02-16T10:18:56;27.10;;;17.25;;
14876;SDS011;69691;48.172;17.070;2024-02-16T10:21:29;28.80;;;15.57;;
14876;SDS011;69691;48.172;17.070;2024-02-16T10:24:02;25.45;;;15.88;;
14876;SDS011;69691;48.172;17.070;2024-02-16T10:26:33;28.90;;;16.45;;
14876;SDS011;69691;48.172;17.070;2024-02-16T10:29:03;24.35;;;15.63;;
14876;SDS011;69691;48.172;17.070;2024-02-16T10:31:34;25.80;;;15.77;;
14876;SDS011;69691;48.172;17.070;2024-02-16T10:34:01;28.50;;;16.45;;
14876;SDS011;69691;48.172;17.070;2024-02-16T10:36:32;24.83;;;14.90;;
14876;SDS011;69691;48.172;17.070;2024-02-16T10:39:00;25.15;;;15.57;;
14876;SDS011;69691;48.172;17.070;2024-02-16T10:41:31;22.17;;;14.55;;
14876;SDS011;69691;48.172;17.070;2024-02-16T10:46:30;21.55;;;13.25;;
14876;SDS011;69691;48.172;17.070;2024-02-16T10:48:57;21.58;;;12.95;;
14876;SDS011;69691;48.172;17.070;2024-02-16T10:51:30;23.17;;;12.27;;
14876;SDS011;69691;48.172;17.070;2024-02-16T10:54:06;22.33;;;12.65;;
14876;SDS011;69691;48.172;17.070;2024-02-16T10:56:34;18.88;;;12.40;;
14876;SDS011;69691;48.172;17.070;2024-02-16T10:59:01;21.70;;;13.35;;
14876;SDS011;69691;48.172;17.070;2024-02-16T11:01:39;21.52;;;12.57;;
14876;SDS011;69691;48.172;17.070;2024-02-16T11:04:08;20.75;;;12.63;;
14876;SDS011;69691;48.172;17.070;2024-02-16T11:06:53;20.73;;;13.07;;
14876;SDS011;69691;48.172;17.070;2024-02-16T11:09:34;19.08;;;11.93;;
14876;SDS011;69691;48.172;17.070;2024-02-16T11:12:04;16.35;;;11.57;;
14876;SDS011;69691;48.172;17.070;2024-02-16T11:14:37;21.17;;;12.55;;
14876;SDS011;69691;48.172;17.070;2024-02-16T11:17:10;17.10;;;11.48;;
14876;SDS011;69691;48.172;17.070;2024-02-16T11:19:37;17.42;;;11.70;;
14876;SDS011;69691;48.172;17.070;2024-02-16T11:22:09;21.67;;;11.70;;
14876;SDS011;69691;48.172;17.070;2024-02-16T11:24:37;19.65;;;12.18;;
14876;SDS011;69691;48.172;17.070;2024-02-16T11:27:11;19.58;;;11.60;;
14876;SDS011;69691;48.172;17.070;2024-02-16T11:29:40;17.45;;;11.23;;
14876;SDS011;69691;48.172;17.070;2024-02-16T11:32:06;19.63;;;11.20;;
14876;SDS011;69691;48.172;17.070;2024-02-16T11:34:33;16.73;;;11.88;;
14876;SDS011;69691;48.172;17.070;2024-02-16T11:37:00;18.10;;;11.70;;
14876;SDS011;69691;48.172;17.070;2024-02-16T11:39:27;17.63;;;10.57;;
14876;SDS011;69691;48.172;17.070;2024-02-16T11:42:04;15.07;;;10.68;;
14876;SDS011;69691;48.172;17.070;2024-02-16T11:44:33;18.05;;;10.90;;
14876;SDS011;69691;48.172;17.070;2024-02-16T11:47:02;18.17;;;10.68;;
14876;SDS011;69691;48.172;17.070;2024-02-16T11:49:29;15.20;;;10.27;;
14876;SDS011;69691;48.172;17.070;2024-02-16T11:51:55;16.00;;;10.63;;
14876;SDS011;69691;48.172;17.070;2024-02-16T11:54:22;16.67;;;10.60;;
14876;SDS011;69691;48.172;17.070;2024-02-16T11:56:48;15.32;;;10.13;;
14876;SDS011;69691;48.172;17.070;2024-02-16T11:59:17;14.48;;;9.88;;
14876;SDS011;69691;48.172;17.070;2024-02-16T12:01:48;18.90;;;9.95;;
14876;SDS011;69691;48.172;17.070;2024-02-16T12:04:25;14.10;;;9.73;;
14876;SDS011;69691;48.172;17.070;2024-02-16T12:06:54;22.05;;;9.60;;
14876;SDS011;69691;48.172;17.070;2024-02-16T12:09:22;16.58;;;9.20;;
14876;SDS011;69691;48.172;17.070;2024-02-16T12:11:49;15.15;;;9.63;;
14876;SDS011;69691;48.172;17.070;2024-02-16T12:14:17;15.07;;;9.88;;
14876;SDS011;69691;48.172;17.070;2024-02-16T12:16:47;14.68;;;9.45;;
14876;SDS011;69691;48.172;17.070;2024-02-16T12:19:20;17.50;;;10.55;;
14876;SDS011;69691;48.172;17.070;2024-02-16T12:21:49;14.63;;;9.57;;
14876;SDS011;69691;48.172;17.070;2024-02-16T12:26:49;18.88;;;10.75;;
14876;SDS011;69691;48.172;17.070;2024-02-16T12:29:15;16.25;;;9.07;;
14876;SDS011;69691;48.172;17.070;2024-02-16T12:31:44;13.05;;;9.13;;
14876;SDS011;69691;48.172;17.070;2024-02-16T12:34:13;14.02;;;10.10;;
14876;SDS011;69691;48.172;17.070;2024-02-16T12:36:39;16.17;;;9.85;;
14876;SDS011;69691;48.172;17.070;2024-02-16T12:39:06;14.77;;;8.43;;
14876;SDS011;69691;48.172;17.070;2024-02-16T12:41:34;27.00;;;8.95;;
14876;SDS011;69691;48.172;17.070;2024-02-16T12:44:01;13.73;;;8.45;;
14876;SDS011;69691;48.172;17.070;2024-02-16T12:46:27;13.70;;;8.90;;
14876;SDS011;69691;48.172;17.070;2024-02-16T12:48:53;17.73;;;9.25;;
14876;SDS011;69691;48.172;17.070;2024-02-16T12:51:19;15.27;;;9.48;;
14876;SDS011;69691;48.172;17.070;2024-02-16T12:53:45;12.13;;;9.10;;
14876;SDS011;69691;48.172;17.070;2024-02-16T12:56:11;14.15;;;8.68;;
14876;SDS011;69691;48.172;17.070;2024-02-16T12:58:38;16.52;;;9.73;;
14876;SDS011;69691;48.172;17.070;2024-02-16T13:01:04;14.73;;;9.50;;
14876;SDS011;69691;48.172;17.070;2024-02-16T13:03:35;16.52;;;11.07;;
14876;SDS011;69691;48.172;17.070;2024-02-16T13:06:02;14.05;;;11.00;;
14876;SDS011;69691;48.172;17.070;2024-02-16T13:08:29;17.15;;;10.52;;
14876;SDS011;69691;48.172;17.070;2024-02-16T13:10:55;17.90;;;11.52;;
14876;SDS011;69691;48.172;17.070;2024-02-16T13:13:22;19.42;;;11.70;;
14876;SDS011;69691;48.172;17.070;2024-02-16T13:15:49;19.38;;;10.75;;
14876;SDS011;69691;48.172;17.070;2024-02-16T13:18:15;19.77;;;12.75;;
14876;SDS011;69691;48.172;17.070;2024-02-16T13:20:43;17.95;;;11.10;;
14876;SDS011;69691;48.172;17.070;2024-02-16T13:23:11;19.65;;;12.15;;
14876;SDS011;69691;48.172;17.070;2024-02-16T13:25:37;17.85;;;11.13;;
14876;SDS011;69691;48.172;17.070;2024-02-16T13:28:03;17.90;;;11.30;;
14876;SDS011;69691;48.172;17.070;2024-02-16T13:30:30;17.52;;;11.88;;
14876;SDS011;69691;48.172;17.070;2024-02-16T13:32:56;18.50;;;11.35;;
14876;SDS011;69691;48.172;17.070;2024-02-16T13:35:22;21.10;;;12.70;;
14876;SDS011;69691;48.172;17.070;2024-02-16T13:37:48;22.30;;;13.02;;
14876;SDS011;69691;48.172;17.070;2024-02-16T13:40:15;22.25;;;12.10;;
14876;SDS011;69691;48.172;17.070;2024-02-16T13:42:42;24.35;;;11.60;;
14876;SDS011;69691;48.172;17.070;2024-02-16T13:45:09;21.25;;;12.88;;
14876;SDS011;69691;48.172;17.070;2024-02-16T13:47:36;18.48;;;12.25;;
14876;SDS011;69691;48.172;17.070;2024-02-16T13:50:06;19.27;;;12.73;;
14876;SDS011;69691;48.172;17.070;2024-02-16T13:52:32;26.58;;;13.45;;
14876;SDS011;69691;48.172;17.070;2024-02-16T13:54:59;17.95;;;11.68;;
14876;SDS011;69691;48.172;17.070;2024-02-16T13:57:25;26.77;;;12.90;;
14876;SDS011;69691;48.172;17.070;2024-02-16T13:59:51;21.15;;;11.43;;
14876;SDS011;69691;48.172;17.070;2024-02-16T14:02:17;20.38;;;12.45;;
14876;SDS011;69691;48.172;17.070;2024-02-16T14:04:43;19.35;;;12.02;;
14876;SDS011;69691;48.172;17.070;2024-02-16T14:07:09;18.52;;;11.65;;
14876;SDS011;69691;48.172;17.070;2024-02-16T14:09:35;16.60;;;11.57;;
14876;SDS011;69691;48.172;17.070;2024-02-16T14:12:01;14.45;;;10.45;;
14876;SDS011;69691;48.172;17.070;2024-02-16T14:14:27;14.65;;;9.93;;